createdAt,value
2023-05-23T00:01:18.724Z,11.95
2023-05-23T00:04:21.197Z,12.88
2023-05-23T00:07:23.573Z,11.80
2023-05-23T00:10:25.892Z,11.52
2023-05-23T00:13:28.238Z,12.75
2023-05-23T00:16:30.588Z,12.90
2023-05-23T00:19:36.742Z,13.85
2023-05-23T00:22:43.233Z,10.73
2023-05-23T00:25:48.658Z,13.27
2023-05-23T00:28:51.071Z,10.73
2023-05-23T00:31:53.632Z,11.65
2023-05-23T00:34:56.331Z,10.23
2023-05-23T00:37:58.857Z,12.45
2023-05-23T00:41:02.496Z,13.93
2023-05-23T00:44:05.747Z,12.18
2023-05-23T00:47:08.956Z,11.40
2023-05-23T00:50:15.920Z,11.70
2023-05-23T00:53:18.848Z,12.43
2023-05-23T00:56:21.613Z,11.98
2023-05-23T00:59:27.586Z,14.30
2023-05-23T01:02:32.508Z,13.88
2023-05-23T01:05:34.914Z,11.90
2023-05-23T01:08:37.338Z,12.02
2023-05-23T01:12:06.052Z,11.50
2023-05-23T01:15:09.038Z,11.50
2023-05-23T01:18:20.062Z,11.90
2023-05-23T01:21:24.548Z,11.50
2023-05-23T01:24:26.811Z,12.45
2023-05-23T01:27:54.387Z,11.98
2023-05-23T01:30:59.025Z,10.38
2023-05-23T01:34:02.005Z,12.45
2023-05-23T01:37:12.053Z,13.77
2023-05-23T01:43:16.762Z,11.75
2023-05-23T01:46:20.506Z,11.52
2023-05-23T01:49:24.374Z,12.80
2023-05-23T01:52:28.702Z,15.27
2023-05-23T01:55:31.498Z,12.00
2023-05-23T01:58:34.074Z,12.48
2023-05-23T02:01:38.620Z,10.55
2023-05-23T02:04:41.022Z,11.25
2023-05-23T02:07:43.659Z,11.30
2023-05-23T02:10:45.957Z,12.80
2023-05-23T02:13:48.388Z,13.75
2023-05-23T02:16:53.002Z,11.40
2023-05-23T02:19:56.991Z,12.13
2023-05-23T02:22:59.307Z,13.82
2023-05-23T02:26:01.902Z,13.13
2023-05-23T02:29:04.305Z,13.07
2023-05-23T02:32:06.895Z,13.93
2023-05-23T02:35:10.567Z,12.23
2023-05-23T02:38:12.985Z,13.25
2023-05-23T02:41:17.061Z,15.80
2023-05-23T02:44:20.008Z,13.77
2023-05-23T02:47:22.348Z,11.77
2023-05-23T02:50:24.632Z,13.90
2023-05-23T02:53:27.249Z,11.82
2023-05-23T02:56:30.716Z,11.88
2023-05-23T02:59:33.016Z,12.93
2023-05-23T03:02:35.327Z,12.55
2023-05-23T03:05:38.025Z,12.30
2023-05-23T03:08:44.043Z,12.23
2023-05-23T03:11:46.651Z,13.30
2023-05-23T03:14:49.150Z,13.75
2023-05-23T03:17:51.515Z,12.95
2023-05-23T03:20:54.006Z,13.23
2023-05-23T03:23:58.672Z,15.80
2023-05-23T03:27:02.208Z,13.02
2023-05-23T03:30:05.109Z,11.50
2023-05-23T03:33:07.779Z,12.88
2023-05-23T03:36:10.232Z,12.90
2023-05-23T03:39:12.659Z,12.18
2023-05-23T03:42:14.982Z,13.07
2023-05-23T03:45:18.537Z,12.27
2023-05-23T03:48:21.246Z,13.82
2023-05-23T03:51:24.520Z,14.15
2023-05-23T03:54:26.931Z,12.07
2023-05-23T03:57:29.209Z,12.38
2023-05-23T04:00:31.882Z,13.98
2023-05-23T04:03:36.006Z,10.55
2023-05-23T04:06:39.716Z,14.25
2023-05-23T04:09:42.015Z,11.68
2023-05-23T04:12:48.284Z,11.75
2023-05-23T04:15:53.157Z,14.27
2023-05-23T04:18:56.146Z,11.52
2023-05-23T04:21:58.454Z,13.52
2023-05-23T04:25:01.374Z,12.48
2023-05-23T04:28:08.141Z,11.20
2023-05-23T04:31:10.532Z,12.13
2023-05-23T04:34:13.585Z,12.38
2023-05-23T04:37:17.687Z,10.88
2023-05-23T04:40:20.387Z,11.52
2023-05-23T04:43:42.751Z,12.27
2023-05-23T04:47:02.805Z,12.32
2023-05-23T04:50:18.853Z,12.48
2023-05-23T04:53:21.521Z,14.25
2023-05-23T04:56:28.484Z,14.07
2023-05-23T04:59:32.179Z,11.25
2023-05-23T05:02:35.647Z,10.20
2023-05-23T05:05:38.785Z,10.63
2023-05-23T05:08:41.092Z,11.13
2023-05-23T05:11:45.198Z,12.27
2023-05-23T05:14:47.570Z,12.35
2023-05-23T05:17:50.263Z,14.05
2023-05-23T05:20:55.199Z,11.02
2023-05-23T05:23:57.889Z,12.63
2023-05-23T05:27:00.256Z,10.77
2023-05-23T05:30:05.299Z,10.88
2023-05-23T05:33:10.420Z,9.55
2023-05-23T05:36:13.061Z,10.10
2023-05-23T05:39:16.284Z,10.48
2023-05-23T05:42:18.664Z,9.85
2023-05-23T05:45:21.141Z,11.30
2023-05-23T05:48:24.603Z,10.00
2023-05-23T05:51:29.762Z,9.63
2023-05-23T05:54:32.098Z,10.43
2023-05-23T05:57:39.079Z,10.93
2023-05-23T06:00:44.521Z,8.38
2023-05-23T06:03:47.013Z,9.10
2023-05-23T06:06:49.581Z,8.43
2023-05-23T06:09:52.151Z,9.57
2023-05-23T06:12:54.524Z,9.55
2023-05-23T06:15:57.135Z,8.77
2023-05-23T06:19:00.213Z,10.13
2023-05-23T06:22:04.812Z,11.75
2023-05-23T06:25:08.024Z,9.82
2023-05-23T06:28:10.527Z,11.32
2023-05-23T06:31:12.977Z,10.15
2023-05-23T06:34:16.411Z,9.07
2023-05-23T06:37:18.735Z,11.38
2023-05-23T06:40:21.171Z,9.18
2023-05-23T06:43:23.612Z,9.63
2023-05-23T06:46:29.669Z,8.02
2023-05-23T06:49:32.179Z,9.73
2023-05-23T06:52:34.501Z,8.98
2023-05-23T06:55:38.236Z,9.30
2023-05-23T06:58:44.077Z,10.38
2023-05-23T07:01:47.779Z,10.93
2023-05-23T07:04:50.509Z,9.57
2023-05-23T07:08:07.600Z,9.52
2023-05-23T07:11:10.014Z,8.73
2023-05-23T07:14:20.542Z,9.93
2023-05-23T07:17:23.118Z,11.15
2023-05-23T07:20:25.601Z,10.20
2023-05-23T07:23:37.316Z,8.68
2023-05-23T07:26:39.752Z,10.85
2023-05-23T07:29:42.381Z,11.38
2023-05-23T07:32:46.302Z,10.05
2023-05-23T07:35:51.266Z,10.43
2023-05-23T07:38:53.750Z,12.88
2023-05-23T07:41:56.222Z,11.45
2023-05-23T07:44:58.639Z,10.82
2023-05-23T07:48:01.182Z,10.30
2023-05-23T07:51:06.290Z,10.85
2023-05-23T07:54:09.548Z,10.48
2023-05-23T07:57:16.961Z,12.40
2023-05-23T08:00:20.448Z,10.90
2023-05-23T08:03:26.728Z,11.27
2023-05-23T08:06:45.754Z,9.88
2023-05-23T08:10:01.939Z,8.95
2023-05-23T08:13:07.027Z,10.05
2023-05-23T08:16:16.096Z,10.05
2023-05-23T08:19:18.577Z,10.77
2023-05-23T08:22:21.816Z,11.27
2023-05-23T08:25:25.282Z,10.85
2023-05-23T08:28:28.200Z,11.18
2023-05-23T08:31:31.504Z,11.02
2023-05-23T08:34:34.726Z,13.18
2023-05-23T08:37:37.123Z,11.35
2023-05-23T08:40:41.853Z,12.40
2023-05-23T08:43:48.201Z,12.77
2023-05-23T08:46:58.711Z,11.18
2023-05-23T08:50:26.650Z,13.60
2023-05-23T08:53:31.408Z,13.38
2023-05-23T08:56:41.409Z,14.70
2023-05-23T08:59:46.282Z,14.55
2023-05-23T09:02:49.156Z,11.73
2023-05-23T09:06:13.653Z,14.30
2023-05-23T09:09:17.879Z,13.35
2023-05-23T09:12:22.596Z,14.23
2023-05-23T09:15:27.601Z,14.98
2023-05-23T09:18:39.742Z,14.05
2023-05-23T09:21:45.802Z,14.15
2023-05-23T09:25:03.306Z,16.60
2023-05-23T09:28:06.564Z,15.40
2023-05-23T09:31:12.708Z,18.58
2023-05-23T09:34:15.142Z,15.48
2023-05-23T09:37:19.753Z,16.27
2023-05-23T09:40:22.253Z,16.42
2023-05-23T09:43:31.015Z,15.02
2023-05-23T09:46:37.473Z,15.48
2023-05-23T09:49:41.794Z,18.05
2023-05-23T09:52:44.411Z,17.73
2023-05-23T09:55:47.158Z,15.30
2023-05-23T09:58:50.459Z,16.13
2023-05-23T10:01:55.796Z,14.82
2023-05-23T10:04:58.939Z,15.57
2023-05-23T10:08:05.321Z,15.52
2023-05-23T10:11:13.755Z,15.80
2023-05-23T10:14:17.619Z,15.27
2023-05-23T10:17:37.494Z,17.65
2023-05-23T10:20:43.800Z,14.35
2023-05-23T10:23:48.298Z,17.15
2023-05-23T10:26:50.668Z,19.38
2023-05-23T10:29:53.209Z,16.13
2023-05-23T10:32:58.039Z,15.73
2023-05-23T10:36:09.570Z,15.23
2023-05-23T10:39:23.253Z,14.27
2023-05-23T10:42:34.399Z,15.38
2023-05-23T10:45:47.291Z,12.90
2023-05-23T10:48:57.615Z,12.88
2023-05-23T10:52:00.757Z,14.95
2023-05-23T10:55:03.241Z,12.60
2023-05-23T10:58:12.070Z,14.13
2023-05-23T11:01:18.247Z,13.52
2023-05-23T11:04:28.467Z,12.68
2023-05-23T11:10:33.718Z,12.48
2023-05-23T11:13:58.026Z,11.18
2023-05-23T11:17:12.761Z,12.20
2023-05-23T11:20:17.237Z,11.15
2023-05-23T11:23:19.787Z,10.35
2023-05-23T11:26:32.527Z,10.00
2023-05-23T11:29:35.130Z,11.32
2023-05-23T11:32:38.049Z,11.45
2023-05-23T11:35:52.058Z,15.02
2023-05-23T11:38:55.520Z,12.82
2023-05-23T11:42:05.014Z,13.00
2023-05-23T11:45:09.807Z,13.60
2023-05-23T11:48:14.261Z,13.18
2023-05-23T11:51:17.525Z,13.82
2023-05-23T11:54:26.855Z,12.85
2023-05-23T11:57:29.310Z,14.13
2023-05-23T12:00:31.891Z,15.75
2023-05-23T12:03:48.621Z,14.80
2023-05-23T12:06:51.904Z,14.38
2023-05-23T12:09:57.554Z,13.73
2023-05-23T12:13:00.074Z,13.23
2023-05-23T12:16:04.770Z,13.93
2023-05-23T12:19:07.708Z,14.02
2023-05-23T12:22:10.099Z,16.13
2023-05-23T12:25:12.530Z,13.18
2023-05-23T12:28:16.391Z,16.23
2023-05-23T12:31:22.941Z,14.95
2023-05-23T12:34:25.316Z,15.48
2023-05-23T12:37:27.735Z,15.20
2023-05-23T12:40:30.211Z,13.85
2023-05-23T12:43:32.841Z,14.20
2023-05-23T12:46:35.581Z,13.55
2023-05-23T12:49:38.677Z,13.00
2023-05-23T12:52:41.144Z,14.07
2023-05-23T12:55:43.733Z,13.10
2023-05-23T12:58:46.266Z,16.17
2023-05-23T13:01:48.584Z,12.95
2023-05-23T13:04:50.889Z,13.65
2023-05-23T13:07:53.205Z,13.25
2023-05-23T13:10:55.702Z,11.13
2023-05-23T13:13:58.413Z,12.60
2023-05-23T13:17:01.054Z,11.27
2023-05-23T13:20:05.428Z,13.55
2023-05-23T13:23:08.390Z,11.00
2023-05-23T13:26:10.924Z,12.82
2023-05-23T13:29:13.240Z,11.57
2023-05-23T13:32:15.863Z,10.25
2023-05-23T13:35:18.388Z,10.93
2023-05-23T13:38:26.681Z,11.30
2023-05-23T13:41:29.303Z,14.57
2023-05-23T13:44:31.625Z,9.15
2023-05-23T13:47:34.171Z,10.45
2023-05-23T13:50:36.786Z,11.35
2023-05-23T13:53:39.261Z,10.02
2023-05-23T13:56:42.005Z,9.00
2023-05-23T13:59:44.391Z,9.43
2023-05-23T14:02:46.929Z,11.32
2023-05-23T14:05:49.437Z,8.38
2023-05-23T14:08:51.931Z,9.05
2023-05-23T14:11:54.246Z,8.77
2023-05-23T14:14:56.832Z,8.18
2023-05-23T14:17:59.451Z,8.93
2023-05-23T14:21:01.724Z,8.88
2023-05-23T14:24:04.221Z,8.52
2023-05-23T14:27:08.684Z,9.27
2023-05-23T14:30:12.980Z,9.25
2023-05-23T14:33:15.747Z,11.45
2023-05-23T14:36:18.299Z,10.35
2023-05-23T14:39:20.541Z,11.07
2023-05-23T14:42:22.884Z,10.50
2023-05-23T14:45:25.415Z,9.50
2023-05-23T14:48:31.047Z,9.30
2023-05-23T14:51:46.236Z,7.80
2023-05-23T14:54:52.528Z,7.63
2023-05-23T14:57:54.938Z,8.90
2023-05-23T15:00:57.686Z,8.57
2023-05-23T15:04:00.608Z,6.75
2023-05-23T15:07:02.999Z,8.35
2023-05-23T15:10:06.856Z,8.25
2023-05-23T15:13:09.340Z,7.30
2023-05-23T15:16:11.979Z,7.22
2023-05-23T15:19:14.409Z,8.25
2023-05-23T15:22:34.341Z,7.88
2023-05-23T15:25:49.446Z,9.15
2023-05-23T15:28:52.216Z,9.18
2023-05-23T15:31:54.520Z,9.23
2023-05-23T15:34:56.799Z,6.47
2023-05-23T15:37:59.065Z,8.20
2023-05-23T15:41:01.669Z,9.05
2023-05-23T15:44:04.074Z,9.50
2023-05-23T15:47:06.481Z,11.00
2023-05-23T15:50:09.288Z,7.72
2023-05-23T15:53:11.611Z,7.47
2023-05-23T15:56:15.977Z,9.30
2023-05-23T15:59:18.484Z,7.65
2023-05-23T16:02:20.865Z,7.55
2023-05-23T16:05:24.032Z,9.00
2023-05-23T16:08:26.684Z,7.50
2023-05-23T16:11:28.946Z,7.90
2023-05-23T16:14:32.067Z,7.60
2023-05-23T16:17:34.424Z,7.82
2023-05-23T16:20:36.760Z,8.65
2023-05-23T16:23:39.065Z,7.65
2023-05-23T16:26:41.423Z,8.75
2023-05-23T16:29:43.652Z,8.05
2023-05-23T16:32:46.086Z,8.10
2023-05-23T16:35:48.476Z,8.82
2023-05-23T16:38:51.339Z,12.07
2023-05-23T16:41:54.808Z,6.93
2023-05-23T16:44:57.391Z,7.20
2023-05-23T16:48:01.324Z,7.38
2023-05-23T16:51:03.715Z,7.13
2023-05-23T16:54:06.034Z,7.00
2023-05-23T16:57:08.590Z,6.85
2023-05-23T17:00:11.720Z,10.02
2023-05-23T17:03:14.205Z,8.65
2023-05-23T17:06:16.518Z,8.80
2023-05-23T17:09:19.409Z,9.98
2023-05-23T17:12:22.022Z,8.43
2023-05-23T17:15:24.817Z,8.18
2023-05-23T17:18:27.125Z,6.57
2023-05-23T17:21:29.420Z,9.48
2023-05-23T17:24:31.751Z,8.30
2023-05-23T17:27:34.450Z,8.77
2023-05-23T17:30:36.740Z,10.50
2023-05-23T17:33:39.257Z,11.40
2023-05-23T17:36:41.582Z,10.57
2023-05-23T17:39:43.973Z,9.35
2023-05-23T17:42:46.310Z,7.22
2023-05-23T17:45:48.627Z,10.43
2023-05-23T17:48:51.831Z,8.30
2023-05-23T17:51:54.184Z,9.00
2023-05-23T17:54:57.810Z,9.38
2023-05-23T17:58:00.127Z,7.68
2023-05-23T18:01:02.711Z,7.28
2023-05-23T18:04:05.053Z,9.30
2023-05-23T18:07:10.666Z,7.13
2023-05-23T18:10:13.362Z,8.50
2023-05-23T18:13:15.913Z,7.45
2023-05-23T18:16:18.288Z,8.20
2023-05-23T18:19:20.805Z,9.30
2023-05-23T18:22:23.143Z,10.27
2023-05-23T18:25:28.525Z,7.97
2023-05-23T18:28:31.032Z,8.52
2023-05-23T18:31:33.413Z,7.63
2023-05-23T18:34:35.696Z,8.20
2023-05-23T18:37:38.865Z,7.78
2023-05-23T18:40:41.344Z,8.32
2023-05-23T18:43:44.063Z,7.57
2023-05-23T18:46:46.817Z,9.95
2023-05-23T18:49:49.943Z,9.15
2023-05-23T18:52:52.145Z,8.77
2023-05-23T18:55:54.932Z,9.30
2023-05-23T18:58:57.259Z,9.63
2023-05-23T19:02:00.606Z,9.68
2023-05-23T19:05:03.145Z,7.47
2023-05-23T19:11:41.249Z,9.82
2023-05-23T19:14:43.762Z,9.10
2023-05-23T19:17:48.353Z,7.63
2023-05-23T19:20:52.043Z,9.85
2023-05-23T19:23:55.151Z,10.02
2023-05-23T19:27:00.022Z,9.10
2023-05-23T19:30:02.520Z,9.10
2023-05-23T19:33:05.755Z,10.60
2023-05-23T19:36:08.160Z,10.30
2023-05-23T19:39:12.817Z,8.40
2023-05-23T19:42:15.452Z,10.30
2023-05-23T19:45:19.423Z,8.73
2023-05-23T19:48:21.878Z,8.23
2023-05-23T19:51:25.411Z,9.77
2023-05-23T19:54:28.395Z,9.27
2023-05-23T19:57:32.599Z,8.95
2023-05-23T20:00:35.287Z,8.93
2023-05-23T20:03:39.736Z,9.02
2023-05-23T21:26:29.868Z,13.15
2023-05-23T21:29:32.452Z,13.93
2023-05-23T21:32:34.950Z,17.08
2023-05-23T21:35:38.053Z,17.58
2023-05-23T21:38:40.871Z,12.75
2023-05-23T21:41:43.314Z,14.20
2023-05-23T21:44:45.771Z,15.13
2023-05-23T21:47:48.111Z,13.70
2023-05-23T21:50:50.413Z,13.88
2023-05-23T21:53:52.738Z,13.77
2023-05-23T21:56:55.109Z,13.55
2023-05-23T21:59:57.396Z,15.50
2023-05-23T22:02:59.772Z,15.18
2023-05-23T22:06:02.316Z,14.15
2023-05-23T22:09:05.964Z,12.15
2023-05-23T22:12:08.506Z,12.20
2023-05-23T22:15:11.423Z,15.13
2023-05-23T22:18:13.976Z,13.88
2023-05-23T22:21:16.311Z,12.85
2023-05-23T22:24:18.634Z,15.63
2023-05-23T22:27:21.049Z,13.68
2023-05-23T22:30:23.437Z,13.25
2023-05-23T22:33:25.799Z,13.80
2023-05-23T22:36:28.085Z,14.35
2023-05-23T22:39:30.424Z,11.70
2023-05-23T22:42:32.723Z,11.23
2023-05-23T22:45:40.852Z,16.20
2023-05-23T22:48:43.081Z,10.95
2023-05-23T22:51:45.433Z,11.02
2023-05-23T22:54:47.772Z,10.27
2023-05-23T22:57:50.117Z,11.20
2023-05-23T23:00:55.298Z,13.18
2023-05-23T23:03:57.690Z,11.70
2023-05-23T23:07:01.571Z,11.50
2023-05-23T23:10:04.061Z,10.32
2023-05-23T23:13:06.511Z,11.73
2023-05-23T23:16:08.931Z,9.68
2023-05-23T23:19:11.180Z,12.48
2023-05-23T23:22:13.544Z,9.82
2023-05-23T23:25:19.042Z,9.32
2023-05-23T23:28:21.650Z,10.07
2023-05-23T23:31:24.071Z,10.15
2023-05-23T23:34:26.832Z,10.88
2023-05-23T23:37:29.117Z,11.18
2023-05-23T23:40:31.492Z,12.43
2023-05-23T23:43:33.816Z,12.25
2023-05-23T23:46:36.299Z,8.93
2023-05-23T23:49:38.808Z,8.75
2023-05-23T23:52:41.605Z,8.90
2023-05-23T23:55:43.918Z,8.77
2023-05-23T23:58:46.189Z,9.52
